Time;durP1;ratioP1;P1;durP2;ratioP2;P2;SDS_P1;SDS_P2;PMS_P1;PMS_P2;Temp;Humidity;BMP_temperature;BMP_pressure;BME280_temperature;BME280_humidity;BME280_pressure;Samples;Min_cycle;Max_cycle;Signal;HPM_P1;HPM_P2
2023/09/08 00:02:02;;;;;;;40.75;21.10;;;;;;;;;;5006893;28;20489;-62
2023/09/08 00:04:50;;;;;;;47.58;21.02;;;;;;;;;;5007184;28;20645;-62
2023/09/08 00:07:43;;;;;;;45.35;21.83;;;;;;;;;;5005677;28;20058;-61
2023/09/08 00:10:30;;;;;;;29.17;16.50;;;;;;;;;;5001985;28;20057;-63
2023/09/08 00:13:24;;;;;;;24.33;13.57;;;;;;;;;;5008176;28;20053;-60
2023/09/08 00:16:12;;;;;;;20.95;13.15;;;;;;;;;;5006196;28;20524;-57
2023/09/08 02:45:22;;;;;;;28.13;16.05;;;;;;;;;;4999453;28;20052;-59
2023/09/08 02:48:17;;;;;;;30.48;18.02;;;;;;;;;;4999942;28;20112;-59
2023/09/08 02:51:04;;;;;;;25.48;17.50;;;;;;;;;;5001076;28;20072;-62
2023/09/08 02:53:58;;;;;;;46.00;22.90;;;;;;;;;;5005049;28;20608;-46
2023/09/08 02:56:25;;;;;;;85.63;30.27;;;;;;;;;;5003901;28;21634;-47
2023/09/08 02:59:18;;;;;;;76.47;27.90;;;;;;;;;;4997637;28;20507;-48
2023/09/08 03:02:13;;;;;;;75.65;29.23;;;;;;;;;;4996539;28;20062;-49
2023/09/08 03:05:00;;;;;;;54.60;25.30;;;;;;;;;;5003033;28;20518;-48
2023/09/08 03:07:54;;;;;;;37.15;18.13;;;;;;;;;;4995900;28;20042;-46
2023/09/08 03:10:22;;;;;;;38.53;17.98;;;;;;;;;;4986830;28;20061;-66
2023/09/08 03:13:15;;;;;;;205.60;28.90;;;;;;;;;;4998329;28;20081;-47
2023/09/08 03:16:06;;;;;;;375.95;37.55;;;;;;;;;;4994774;28;20104;-47
2023/09/08 03:19:00;;;;;;;457.10;35.05;;;;;;;;;;4996220;28;20065;-48
2023/09/08 03:21:47;;;;;;;490.38;46.58;;;;;;;;;;4993607;28;20419;-47
2023/09/08 03:24:40;;;;;;;360.90;30.77;;;;;;;;;;4990007;28;20473;-48
2023/09/08 03:27:28;;;;;;;407.73;41.00;;;;;;;;;;4994870;28;20049;-48
2023/09/08 03:30:22;;;;;;;183.68;31.25;;;;;;;;;;4987273;28;20120;-53
2023/09/08 03:33:09;;;;;;;88.75;24.95;;;;;;;;;;4984992;28;20152;-51
2023/09/08 03:36:03;;;;;;;97.72;22.10;;;;;;;;;;5000788;28;20046;-51
2023/09/08 03:38:50;;;;;;;169.32;26.33;;;;;;;;;;5003433;28;20056;-49
2023/09/08 03:41:43;;;;;;;331.35;37.25;;;;;;;;;;5002711;28;20050;-48
2023/09/08 03:44:50;;;;;;;262.27;32.25;;;;;;;;;;5002472;28;20054;-50
2023/09/08 03:47:44;;;;;;;140.95;20.60;;;;;;;;;;5002594;28;20062;-50
2023/09/08 03:50:39;;;;;;;102.47;20.25;;;;;;;;;;5003139;28;20050;-59
2023/09/08 03:53:32;;;;;;;65.32;24.05;;;;;;;;;;4998992;28;20069;-60
2023/09/08 03:56:22;;;;;;;76.53;26.65;;;;;;;;;;5001723;28;20077;-60
2023/09/08 03:59:13;;;;;;;72.90;23.67;;;;;;;;;;4997382;28;20080;-60
2023/09/08 04:02:01;;;;;;;149.93;32.92;;;;;;;;;;4998718;28;20053;-59
2023/09/08 04:04:55;;;;;;;78.25;28.65;;;;;;;;;;4991975;28;20125;-50
2023/09/08 04:07:42;;;;;;;77.28;29.50;;;;;;;;;;4989703;28;20053;-51
2023/09/08 04:10:35;;;;;;;50.90;23.90;;;;;;;;;;5000301;28;20087;-46
2023/09/08 04:13:23;;;;;;;64.78;25.80;;;;;;;;;;5000859;28;20054;-46
2023/09/08 04:15:57;;;;;;;67.22;27.48;;;;;;;;;;5004434;28;20053;-51
2023/09/08 04:18:44;;;;;;;56.92;25.88;;;;;;;;;;4999776;28;20465;-47
2023/09/08 04:21:38;;;;;;;65.80;26.73;;;;;;;;;;4998176;28;20868;-62
2023/09/08 04:24:35;;;;;;;90.30;30.65;;;;;;;;;;4998715;28;20061;-50
2023/09/08 04:27:22;;;;;;;62.15;25.70;;;;;;;;;;5000473;28;20054;-52
2023/09/08 04:30:16;;;;;;;106.68;34.17;;;;;;;;;;4991854;28;20153;-50
2023/09/08 04:33:03;;;;;;;91.90;31.33;;;;;;;;;;4994910;28;20467;-49
2023/09/08 04:35:57;;;;;;;76.47;29.20;;;;;;;;;;4999612;28;20050;-52
2023/09/08 04:38:44;;;;;;;64.20;27.52;;;;;;;;;;4999422;28;20066;-49
2023/09/08 04:41:38;;;;;;;110.05;33.42;;;;;;;;;;4997253;28;20077;-63
2023/09/08 04:44:26;;;;;;;102.88;32.85;;;;;;;;;;4998992;28;20134;-59
2023/09/08 04:47:19;;;;;;;;;;;;;;;;;;5002768;28;20053;-59
2023/09/08 04:50:07;;;;;;;143.60;36.13;;;;;;;;;;4996165;28;19925;-60
2023/09/08 04:53:00;;;;;;;195.38;40.40;;;;;;;;;;4995218;28;20474;-60
2023/09/08 04:55:48;;;;;;;216.63;38.95;;;;;;;;;;4985541;28;20061;-61
2023/09/08 04:58:42;;;;;;;279.17;48.85;;;;;;;;;;4988113;28;20072;-59
2023/09/08 05:01:32;;;;;;;210.80;42.60;;;;;;;;;;4992893;28;20119;-62
2023/09/08 05:04:06;;;;;;;337.73;51.65;;;;;;;;;;5001264;28;20529;-60
2023/09/08 05:06:33;;;;;;;224.10;45.95;;;;;;;;;;5003082;28;20522;-59
2023/09/08 05:09:00;;;;;;;326.17;50.20;;;;;;;;;;5003076;28;20066;-60
2023/09/08 05:11:34;;;;;;;373.35;56.22;;;;;;;;;;5004502;28;20580;-60
2023/09/08 05:14:08;;;;;;;305.27;49.10;;;;;;;;;;5001747;28;20162;-60
2023/09/08 05:16:46;;;;;;;443.17;57.63;;;;;;;;;;5003776;28;20486;-60
2023/09/08 05:19:13;;;;;;;342.67;51.88;;;;;;;;;;5005969;28;20140;-52
2023/09/08 05:21:46;;;;;;;324.33;50.00;;;;;;;;;;5004098;28;20062;-51
2023/09/08 05:24:14;;;;;;;381.17;56.13;;;;;;;;;;5002478;28;20064;-53
2023/09/08 05:26:41;;;;;;;406.15;55.63;;;;;;;;;;5005030;28;20050;-51
2023/09/08 05:29:15;;;;;;;332.15;48.72;;;;;;;;;;5005017;28;20054;-52
2023/09/08 05:31:43;;;;;;;367.38;54.13;;;;;;;;;;4985967;28;20057;-51
2023/09/08 05:34:10;;;;;;;;;;;;;;;;;;5005293;28;20623;-53
2023/09/08 05:36:44;;;;;;;326.40;46.60;;;;;;;;;;5004027;28;20315;-51
2023/09/08 05:39:13;;;;;;;;;;;;;;;;;;5008247;28;20065;-51
2023/09/08 05:41:40;;;;;;;286.02;45.25;;;;;;;;;;5002804;28;20012;-48
2023/09/08 05:44:21;;;;;;;390.70;48.53;;;;;;;;;;5005318;28;20097;-46
2023/09/08 05:46:55;;;;;;;332.67;48.45;;;;;;;;;;5004516;28;20042;-50
2023/09/08 05:49:49;;;;;;;125.97;28.50;;;;;;;;;;5003681;28;20058;-50
2023/09/08 05:52:36;;;;;;;259.88;41.30;;;;;;;;;;5002926;28;20058;-51
2023/09/08 05:55:30;;;;;;;193.98;36.72;;;;;;;;;;5002722;28;20480;-57
2023/09/08 05:58:17;;;;;;;203.38;39.40;;;;;;;;;;5002033;28;20089;-54
2023/09/08 06:01:11;;;;;;;313.30;43.92;;;;;;;;;;5004914;28;20116;-56
2023/09/08 06:03:58;;;;;;;268.10;34.55;;;;;;;;;;5002532;28;20148;-59
2023/09/08 06:06:58;;;;;;;177.10;32.67;;;;;;;;;;5004913;28;20701;-58
2023/09/08 06:09:52;;;;;;;332.40;49.15;;;;;;;;;;5004108;28;20105;-58
2023/09/08 06:12:50;;;;;;;242.60;40.88;;;;;;;;;;5001078;28;20505;-58
2023/09/08 06:15:34;;;;;;;145.63;28.80;;;;;;;;;;5005932;28;20054;-49
2023/09/08 06:18:32;;;;;;;335.90;34.95;;;;;;;;;;5003613;28;20045;-50
2023/09/08 06:21:16;;;;;;;163.98;29.60;;;;;;;;;;5001489;28;20509;-50
2023/09/08 06:24:10;;;;;;;184.38;24.88;;;;;;;;;;5004535;28;20057;-47
2023/09/08 06:27:04;;;;;;;203.13;24.42;;;;;;;;;;5004737;28;20049;-62
2023/09/08 06:29:51;;;;;;;198.85;29.58;;;;;;;;;;5003032;28;20050;-64
2023/09/08 06:32:44;;;;;;;197.27;29.20;;;;;;;;;;5002299;28;20121;-64
2023/09/08 06:35:33;;;;;;;284.08;32.17;;;;;;;;;;5004283;28;20046;-64
2023/09/08 06:38:25;;;;;;;326.90;33.20;;;;;;;;;;5003746;28;20058;-64
2023/09/08 06:41:13;;;;;;;304.83;26.63;;;;;;;;;;5003517;28;20054;-64
2023/09/08 06:44:20;;;;;;;143.43;25.25;;;;;;;;;;5001556;28;20061;-60
2023/09/08 06:47:07;;;;;;;338.95;29.80;;;;;;;;;;5004984;28;20081;-59
2023/09/08 06:50:00;;;;;;;258.80;27.55;;;;;;;;;;5002014;28;20057;-59
2023/09/08 06:52:48;;;;;;;117.35;23.05;;;;;;;;;;5001185;28;20073;-62
2023/09/08 06:55:42;;;;;;;156.82;23.83;;;;;;;;;;5001385;28;20160;-62
2023/09/08 06:58:14;;;;;;;128.50;24.25;;;;;;;;;;5001636;28;20108;-62
2023/09/08 07:00:42;;;;;;;121.22;23.58;;;;;;;;;;5002896;28;20050;-62
2023/09/08 07:03:16;;;;;;;74.72;20.98;;;;;;;;;;5004316;28;20049;-62
2023/09/08 07:06:03;;;;;;;83.10;19.08;;;;;;;;;;5000612;28;20058;-62
2023/09/08 07:08:58;;;;;;;91.63;22.15;;;;;;;;;;5000412;28;20053;-62
2023/09/08 07:11:45;;;;;;;78.93;19.95;;;;;;;;;;5004099;28;20502;-59
2023/09/08 07:14:39;;;;;;;81.80;21.48;;;;;;;;;;5002804;28;20457;-59
2023/09/08 07:17:26;;;;;;;63.08;16.65;;;;;;;;;;5001501;28;20085;-59
2023/09/08 07:20:20;;;;;;;133.20;20.95;;;;;;;;;;5002860;28;20046;-59
2023/09/08 07:23:07;;;;;;;36.63;16.45;;;;;;;;;;5000998;28;20050;-60
2023/09/08 07:26:00;;;;;;;29.67;14.68;;;;;;;;;;5004572;28;20049;-50
2023/09/08 07:28:48;;;;;;;20.33;13.55;;;;;;;;;;5003890;28;20501;-48
2023/09/08 07:31:42;;;;;;;24.17;14.73;;;;;;;;;;5002986;28;20062;-48
2023/09/08 07:34:29;;;;;;;34.38;15.18;;;;;;;;;;5001423;28;20581;-50
2023/09/08 07:37:23;;;;;;;35.30;13.60;;;;;;;;;;5003721;28;20051;-47
2023/09/08 07:40:17;;;;;;;32.70;13.68;;;;;;;;;;5003711;28;20145;-60
2023/09/08 07:43:11;;;;;;;53.13;13.73;;;;;;;;;;5002573;28;20113;-60
2023/09/08 07:46:06;;;;;;;21.90;14.35;;;;;;;;;;5003026;28;20117;-59
2023/09/08 07:49:00;;;;;;;21.52;13.93;;;;;;;;;;5002099;28;20053;-60
2023/09/08 07:51:47;;;;;;;38.47;14.05;;;;;;;;;;5000723;28;20046;-59
2023/09/08 07:54:40;;;;;;;53.97;13.95;;;;;;;;;;5004224;28;20095;-64
2023/09/08 07:57:28;;;;;;;80.07;15.35;;;;;;;;;;4993957;28;20458;-64
2023/09/08 08:00:22;;;;;;;24.33;11.55;;;;;;;;;;4992642;28;20073;-64
2023/09/08 08:03:09;;;;;;;23.10;12.15;;;;;;;;;;5003735;28;20046;-64
2023/09/08 08:06:03;;;;;;;17.95;12.13;;;;;;;;;;4995515;28;20064;-63
2023/09/08 08:08:50;;;;;;;96.10;13.65;;;;;;;;;;4999007;28;20085;-60
2023/09/08 08:11:44;;;;;;;12.98;9.48;;;;;;;;;;4988641;28;20059;-60
2023/09/08 08:14:31;;;;;;;17.17;11.10;;;;;;;;;;5003861;28;20058;-61
2023/09/08 08:17:26;;;;;;;10.48;9.45;;;;;;;;;;4992732;28;20478;-61
2023/09/08 08:20:17;;;;;;;12.95;11.07;;;;;;;;;;5002685;28;20050;-51
2023/09/08 08:23:07;;;;;;;11.68;10.48;;;;;;;;;;5005728;28;20057;-58
2023/09/08 08:25:55;;;;;;;14.50;10.65;;;;;;;;;;5004799;28;20568;-57
2023/09/08 08:28:50;;;;;;;14.80;10.23;;;;;;;;;;5006625;28;20058;-57
2023/09/08 08:31:37;;;;;;;11.02;9.93;;;;;;;;;;4996519;28;20089;-57
2023/09/08 08:34:31;;;;;;;11.40;9.88;;;;;;;;;;4993025;28;20061;-57
2023/09/08 08:37:18;;;;;;;12.57;11.02;;;;;;;;;;5008870;28;20050;-59
2023/09/08 08:40:12;;;;;;;13.95;10.77;;;;;;;;;;5009957;28;20104;-61
2023/09/08 08:43:00;;;;;;;15.02;10.07;;;;;;;;;;5002980;28;20069;-59
2023/09/08 08:45:59;;;;;;;12.20;9.98;;;;;;;;;;5006909;28;20046;-59
2023/09/08 08:48:54;;;;;;;15.25;10.27;;;;;;;;;;5005502;28;20060;-49
2023/09/08 08:51:48;;;;;;;10.77;9.57;;;;;;;;;;5005516;28;20050;-49
2023/09/08 08:54:38;;;;;;;9.87;8.87;;;;;;;;;;5008005;28;20108;-50
2023/09/08 08:57:32;;;;;;;10.90;9.70;;;;;;;;;;5005247;28;20041;-48
2023/09/08 09:00:19;;;;;;;7.87;7.07;;;;;;;;;;5002350;28;20053;-48
2023/09/08 09:03:14;;;;;;;9.65;8.52;;;;;;;;;;5001966;28;20058;-47
2023/09/08 09:06:03;;;;;;;9.23;7.90;;;;;;;;;;5006268;28;20521;-48
2023/09/08 09:08:59;;;;;;;8.82;7.93;;;;;;;;;;5006114;28;20057;-46
2023/09/08 09:11:53;;;;;;;8.25;6.80;;;;;;;;;;5006020;28;20137;-47
2023/09/08 09:14:45;;;;;;;7.03;6.30;;;;;;;;;;5004328;28;20077;-62
2023/09/08 09:17:39;;;;;;;8.90;6.90;;;;;;;;;;5004344;28;20421;-58
2023/09/08 09:20:26;;;;;;;6.80;6.10;;;;;;;;;;5004712;28;20129;-59
2023/09/08 09:23:33;;;;;;;5.88;5.25;;;;;;;;;;5003480;28;20252;-60
2023/09/08 09:26:26;;;;;;;5.78;5.28;;;;;;;;;;5004524;28;20058;-59
2023/09/08 09:29:19;;;;;;;6.65;5.88;;;;;;;;;;5002714;28;20457;-59
2023/09/08 09:32:10;;;;;;;6.43;5.82;;;;;;;;;;5002347;28;20587;-59
2023/09/08 09:35:04;;;;;;;6.35;5.75;;;;;;;;;;5005288;28;20062;-61
2023/09/08 09:37:52;;;;;;;7.25;5.88;;;;;;;;;;5005701;28;20057;-61
2023/09/08 09:40:45;;;;;;;5.82;5.22;;;;;;;;;;5004031;28;20061;-60
2023/09/08 09:43:33;;;;;;;5.65;5.13;;;;;;;;;;5004662;28;20042;-50
2023/09/08 09:46:34;;;;;;;6.25;5.38;;;;;;;;;;5005207;28;20058;-60
2023/09/08 09:49:23;;;;;;;6.13;5.03;;;;;;;;;;5005370;28;20552;-60
2023/09/08 09:52:23;;;;;;;5.93;5.05;;;;;;;;;;5005939;28;20145;-59
2023/09/08 09:55:10;;;;;;;5.25;4.72;;;;;;;;;;5008115;28;20061;-60
2023/09/08 09:58:04;;;;;;;5.82;5.30;;;;;;;;;;5003457;28;20104;-59
2023/09/08 10:00:51;;;;;;;5.32;4.82;;;;;;;;;;5000786;28;20092;-60
2023/09/08 10:03:48;;;;;;;5.78;4.68;;;;;;;;;;5008542;28;20159;-59
2023/09/08 10:06:36;;;;;;;7.43;4.77;;;;;;;;;;5004925;28;22615;-58
2023/09/08 10:09:30;;;;;;;9.05;5.00;;;;;;;;;;5007220;28;20085;-59
2023/09/08 10:12:19;;;;;;;5.30;4.80;;;;;;;;;;5006953;28;20121;-60
2023/09/08 10:15:12;;;;;;;5.50;4.63;;;;;;;;;;5005629;28;20065;-61
2023/09/08 10:18:06;;;;;;;8.18;4.78;;;;;;;;;;5004589;28;20124;-61
2023/09/08 10:20:54;;;;;;;7.28;4.65;;;;;;;;;;5008169;28;20077;-61
2023/09/08 10:23:55;;;;;;;6.13;4.47;;;;;;;;;;5007119;28;20566;-61
2023/09/08 10:26:44;;;;;;;4.53;4.13;;;;;;;;;;5007804;28;20172;-62
2023/09/08 10:29:38;;;;;;;5.25;4.55;;;;;;;;;;5003161;28;20075;-62
2023/09/08 10:32:26;;;;;;;5.47;4.13;;;;;;;;;;5004863;28;20057;-61
2023/09/08 10:35:20;;;;;;;4.40;4.03;;;;;;;;;;5007021;28;20664;-60
2023/09/08 10:38:26;;;;;;;4.75;3.95;;;;;;;;;;5001398;28;20514;-59
2023/09/08 10:41:23;;;;;;;6.82;4.30;;;;;;;;;;5009761;28;20077;-49
2023/09/08 10:44:10;;;;;;;5.10;4.38;;;;;;;;;;5005955;28;20510;-48
2023/09/08 10:47:11;;;;;;;7.63;4.50;;;;;;;;;;5004535;28;20049;-51
2023/09/08 10:50:00;;;;;;;5.40;4.25;;;;;;;;;;5003908;28;20759;-49
2023/09/08 10:53:07;;;;;;;6.07;4.30;;;;;;;;;;5005736;28;20123;-47
2023/09/08 10:55:54;;;;;;;6.72;3.97;;;;;;;;;;5005002;28;20108;-51
2023/09/08 10:58:52;;;;;;;7.20;4.20;;;;;;;;;;5001717;28;20050;-52
2023/09/08 11:01:39;;;;;;;6.07;4.38;;;;;;;;;;5001870;28;20065;-51
2023/09/08 11:04:35;;;;;;;5.35;4.60;;;;;;;;;;5005914;28;20046;-47
2023/09/08 11:07:21;;;;;;;4.35;3.95;;;;;;;;;;5004347;28;20050;-52
2023/09/08 11:10:15;;;;;;;10.80;4.13;;;;;;;;;;5006131;28;20060;-60
2023/09/08 11:13:03;;;;;;;7.25;4.20;;;;;;;;;;5005455;28;20096;-47
2023/09/08 11:15:56;;;;;;;6.03;4.30;;;;;;;;;;5003341;28;20060;-50
2023/09/08 11:18:43;;;;;;;6.85;4.50;;;;;;;;;;5001961;28;20053;-44
2023/09/08 11:21:37;;;;;;;7.75;3.97;;;;;;;;;;5002713;28;20058;-47
2023/09/08 11:24:24;;;;;;;5.03;4.30;;;;;;;;;;5004229;28;20074;-52
2023/09/08 11:27:19;;;;;;;4.95;4.43;;;;;;;;;;5007494;28;20053;-58
2023/09/08 11:30:13;;;;;;;5.50;3.88;;;;;;;;;;5002923;28;20056;-58
2023/09/08 11:33:00;;;;;;;4.77;4.03;;;;;;;;;;5001608;28;20054;-57
2023/09/08 11:35:55;;;;;;;6.95;4.55;;;;;;;;;;5005491;28;20402;-58
2023/09/08 11:38:45;;;;;;;7.53;4.80;;;;;;;;;;5000669;28;20112;-60
2023/09/08 11:41:37;;;;;;;6.45;4.28;;;;;;;;;;5001823;28;20058;-61
2023/09/08 11:44:30;;;;;;;6.63;4.68;;;;;;;;;;5004385;28;20058;-62
2023/09/08 11:47:32;;;;;;;5.75;4.15;;;;;;;;;;5005679;28;20050;-62
2023/09/08 11:50:19;;;;;;;11.07;4.93;;;;;;;;;;5001091;28;20502;-63
2023/09/08 11:53:12;;;;;;;6.47;4.82;;;;;;;;;;4998180;28;20058;-61
2023/09/08 11:56:00;;;;;;;8.70;4.68;;;;;;;;;;5005330;28;20046;-61
2023/09/08 11:58:54;;;;;;;7.13;4.90;;;;;;;;;;5002959;28;20053;-62
2023/09/08 12:01:41;;;;;;;7.50;4.53;;;;;;;;;;5005118;28;20049;-61
2023/09/08 12:04:36;;;;;;;9.35;4.47;;;;;;;;;;5002944;28;20434;-61
2023/09/08 12:07:24;;;;;;;5.97;4.20;;;;;;;;;;5003279;28;20540;-62
2023/09/08 12:10:18;;;;;;;10.45;4.40;;;;;;;;;;5007931;28;20584;-51
2023/09/08 12:13:05;;;;;;;6.20;4.25;;;;;;;;;;5005231;28;20064;-48
2023/09/08 12:16:00;;;;;;;7.43;5.10;;;;;;;;;;5004603;28;20116;-52
2023/09/08 12:18:48;;;;;;;6.47;4.55;;;;;;;;;;5002425;28;20428;-53
2023/09/08 12:21:57;;;;;;;6.15;4.45;;;;;;;;;;5003218;28;20130;-52
2023/09/08 12:24:56;;;;;;;6.63;4.82;;;;;;;;;;5003815;28;20056;-48
2023/09/08 12:27:51;;;;;;;6.60;4.80;;;;;;;;;;4998953;28;20050;-46
2023/09/08 12:30:39;;;;;;;6.20;4.25;;;;;;;;;;5001900;28;20525;-50
2023/09/08 12:33:33;;;;;;;6.03;4.57;;;;;;;;;;5002788;28;20058;-52
2023/09/08 12:36:20;;;;;;;8.35;4.50;;;;;;;;;;5004806;28;20046;-61
2023/09/08 12:39:14;;;;;;;7.95;4.65;;;;;;;;;;5004355;28;20050;-62
2023/09/08 12:42:01;;;;;;;6.80;4.55;;;;;;;;;;5003930;28;20069;-62
2023/09/08 12:45:01;;;;;;;4.90;4.32;;;;;;;;;;4996391;28;20054;-61
2023/09/08 12:48:02;;;;;;;4.40;3.85;;;;;;;;;;4987327;28;20077;-62
2023/09/08 12:50:54;;;;;;;7.75;4.20;;;;;;;;;;4985016;28;20513;-62
2023/09/08 12:53:41;;;;;;;6.10;4.07;;;;;;;;;;4986585;28;20051;-52
2023/09/08 12:56:35;;;;;;;5.60;3.58;;;;;;;;;;4983266;28;20161;-49
2023/09/08 12:59:22;;;;;;;4.70;3.67;;;;;;;;;;4975570;28;20541;-49
2023/09/08 13:02:16;;;;;;;7.57;4.22;;;;;;;;;;4987055;28;20221;-60
2023/09/08 13:05:03;;;;;;;6.70;3.90;;;;;;;;;;4983911;28;20078;-58
2023/09/08 13:07:57;;;;;;;8.02;3.97;;;;;;;;;;4991343;28;20053;-61
2023/09/08 13:10:44;;;;;;;4.70;4.20;;;;;;;;;;4989014;28;20120;-61
2023/09/08 13:13:38;;;;;;;6.18;3.78;;;;;;;;;;4986873;28;20121;-61
2023/09/08 13:16:25;;;;;;;5.93;3.50;;;;;;;;;;4990118;28;20133;-61
2023/09/08 13:19:19;;;;;;;6.28;3.72;;;;;;;;;;4986366;28;20305;-61
2023/09/08 13:22:06;;;;;;;6.88;4.10;;;;;;;;;;4990262;28;20571;-48
2023/09/08 13:25:00;;;;;;;6.22;3.78;;;;;;;;;;4986953;28;20049;-49
2023/09/08 13:27:47;;;;;;;6.07;3.80;;;;;;;;;;4988624;28;20043;-48
2023/09/08 13:30:41;;;;;;;5.93;4.07;;;;;;;;;;4990986;28;20046;-60
2023/09/08 13:33:28;;;;;;;7.75;4.03;;;;;;;;;;4989624;28;20521;-62
2023/09/08 13:36:22;;;;;;;5.55;3.45;;;;;;;;;;4986006;28;20426;-49
2023/09/08 13:39:16;;;;;;;7.15;3.95;;;;;;;;;;4987238;28;20062;-52
2023/09/08 13:42:03;;;;;;;5.30;3.70;;;;;;;;;;4984899;28;20145;-52
2023/09/08 13:45:03;;;;;;;5.82;3.70;;;;;;;;;;4987095;28;20066;-50
2023/09/08 13:47:57;;;;;;;7.28;3.90;;;;;;;;;;4990181;28;20046;-52
2023/09/08 13:50:52;;;;;;;6.50;3.20;;;;;;;;;;4989409;28;20502;-58
2023/09/08 13:53:40;;;;;;;;;;;;;;;;;;4990454;28;20538;-58
2023/09/08 13:56:34;;;;;;;5.50;3.15;;;;;;;;;;4984879;28;19925;-57
2023/09/08 13:59:22;;;;;;;4.35;2.85;;;;;;;;;;4986541;28;20062;-61
2023/09/08 14:02:16;;;;;;;3.95;2.78;;;;;;;;;;4988462;28;20529;-62
2023/09/08 14:05:04;;;;;;;5.50;3.35;;;;;;;;;;4986020;28;20065;-51
2023/09/08 14:07:44;;;;;;;3.75;3.03;;;;;;;;;;4988092;28;20426;-48
2023/09/08 14:10:17;;;;;;;3.42;3.13;;;;;;;;;;4988439;28;20072;-46
2023/09/08 14:13:04;;;;;;;4.95;2.72;;;;;;;;;;4988292;28;20062;-50
2023/09/08 14:15:51;;;;;;;5.00;3.08;;;;;;;;;;4988395;28;20054;-51
2023/09/08 14:18:45;;;;;;;5.55;2.92;;;;;;;;;;4985857;28;20082;-60
2023/09/08 14:21:32;;;;;;;7.20;3.05;;;;;;;;;;4985706;28;20104;-60
2023/09/08 14:24:26;;;;;;;4.45;3.10;;;;;;;;;;4986727;28;20984;-61
2023/09/08 14:27:13;;;;;;;4.43;2.97;;;;;;;;;;4972723;28;20772;-60
2023/09/08 14:30:07;;;;;;;4.57;2.92;;;;;;;;;;4981927;28;20102;-60
2023/09/08 14:32:34;;;;;;;3.95;3.05;;;;;;;;;;4987420;28;20082;-60
2023/09/08 14:35:28;;;;;;;4.55;3.22;;;;;;;;;;4982802;28;20061;-61
2023/09/08 14:38:16;;;;;;;3.65;2.72;;;;;;;;;;4984559;28;20058;-61
2023/09/08 14:40:57;;;;;;;4.30;3.08;;;;;;;;;;4986361;28;20105;-61
2023/09/08 14:43:44;;;;;;;4.88;3.00;;;;;;;;;;4989285;28;20053;-61
2023/09/08 14:46:44;;;;;;;4.75;3.22;;;;;;;;;;4999105;28;20115;-61
2023/09/08 14:49:32;;;;;;;8.10;3.42;;;;;;;;;;5000432;28;20072;-61
2023/09/08 14:52:26;;;;;;;5.00;3.05;;;;;;;;;;5002595;28;20148;-61
2023/09/08 14:55:13;;;;;;;4.70;3.20;;;;;;;;;;5004076;28;20065;-61
2023/09/08 14:58:10;;;;;;;5.30;3.15;;;;;;;;;;5005455;28;20189;-61
2023/09/08 15:01:07;;;;;;;6.20;3.28;;;;;;;;;;5000674;28;20050;-61
2023/09/08 15:03:51;;;;;;;4.13;3.50;;;;;;;;;;5001161;28;20100;-61
2023/09/08 15:06:45;;;;;;;5.22;3.60;;;;;;;;;;5001644;28;20057;-61
2023/09/08 15:09:39;;;;;;;7.00;3.72;;;;;;;;;;5003470;28;20056;-50
2023/09/08 15:12:33;;;;;;;4.90;3.65;;;;;;;;;;5002712;28;20057;-51
2023/09/08 15:15:23;;;;;;;6.40;4.03;;;;;;;;;;5002182;28;20513;-48
2023/09/08 15:18:14;;;;;;;6.32;4.03;;;;;;;;;;5002305;28;20053;-53
2023/09/08 15:21:01;;;;;;;5.35;3.95;;;;;;;;;;5004277;28;20058;-50
2023/09/08 15:23:55;;;;;;;8.25;4.28;;;;;;;;;;5004435;28;20109;-50
2023/09/08 15:26:42;;;;;;;9.32;4.72;;;;;;;;;;5005649;28;20069;-48
2023/09/08 15:29:36;;;;;;;6.60;3.90;;;;;;;;;;5001618;28;20502;-48
2023/09/08 15:32:24;;;;;;;5.95;4.00;;;;;;;;;;5002484;28;20573;-49
2023/09/08 15:35:18;;;;;;;6.18;4.00;;;;;;;;;;5003768;28;20057;-60
2023/09/08 15:38:00;;;;;;;4.72;3.70;;;;;;;;;;5005858;28;20105;-59
2023/09/08 15:40:34;;;;;;;7.20;3.45;;;;;;;;;;5003124;28;20533;-59
2023/09/08 15:43:01;;;;;;;9.23;3.97;;;;;;;;;;5002912;28;20058;-59
2023/09/08 15:45:28;;;;;;;4.22;3.72;;;;;;;;;;4995445;28;20128;-58
2023/09/08 15:48:28;;;;;;;7.20;3.85;;;;;;;;;;4986246;28;20062;-58
2023/09/08 15:51:16;;;;;;;7.22;4.18;;;;;;;;;;4985212;28;20109;-60
2023/09/08 15:54:16;;;;;;;6.53;4.30;;;;;;;;;;4987255;28;20563;-60
2023/09/08 15:57:07;;;;;;;9.57;4.10;;;;;;;;;;4988607;28;20061;-61
2023/09/08 15:59:58;;;;;;;9.77;4.30;;;;;;;;;;4984565;28;20065;-60
2023/09/08 16:02:45;;;;;;;8.30;4.32;;;;;;;;;;4976511;28;20058;-62
2023/09/08 16:05:39;;;;;;;5.45;4.00;;;;;;;;;;4979517;28;20422;-61
2023/09/08 16:08:26;;;;;;;5.72;4.40;;;;;;;;;;4981608;28;20525;-61
2023/09/08 16:11:20;;;;;;;8.48;4.20;;;;;;;;;;4979651;28;20490;-60
2023/09/08 16:14:07;;;;;;;4.95;4.03;;;;;;;;;;4980346;28;20058;-60
2023/09/08 16:17:01;;;;;;;5.95;4.25;;;;;;;;;;4981421;28;20042;-61
2023/09/08 16:19:49;;;;;;;7.20;4.40;;;;;;;;;;4979942;28;20054;-60
2023/09/08 16:22:23;;;;;;;5.95;4.43;;;;;;;;;;4980926;28;20482;-51
2023/09/08 16:25:10;;;;;;;6.20;5.05;;;;;;;;;;4979198;28;20415;-64
2023/09/08 16:27:45;;;;;;;8.40;4.38;;;;;;;;;;4981751;28;20054;-63
2023/09/08 16:30:31;;;;;;;5.78;4.68;;;;;;;;;;4978569;28;20054;-63
2023/09/08 16:33:05;;;;;;;6.38;4.15;;;;;;;;;;4988566;28;20133;-65
2023/09/08 16:35:32;;;;;;;;;;;;;;;;;;4987393;28;20050;-63
2023/09/08 16:38:26;;;;;;;8.52;4.70;;;;;;;;;;4986065;28;19997;-61
2023/09/08 16:41:13;;;;;;;9.00;5.00;;;;;;;;;;4984378;28;20057;-61
2023/09/08 16:44:07;;;;;;;5.80;4.53;;;;;;;;;;4981725;28;20073;-61
2023/09/08 16:47:01;;;;;;;7.45;4.50;;;;;;;;;;4998095;28;20513;-61
2023/09/08 16:49:55;;;;;;;6.00;4.60;;;;;;;;;;5000680;28;20172;-60
2023/09/08 16:52:42;;;;;;;7.72;4.90;;;;;;;;;;5002126;28;20067;-61
2023/09/08 16:55:37;;;;;;;8.75;5.10;;;;;;;;;;5002334;28;20572;-61
2023/09/08 16:58:23;;;;;;;6.75;4.78;;;;;;;;;;5002884;28;20769;-63
2023/09/08 17:01:17;;;;;;;8.45;5.07;;;;;;;;;;4996497;28;20061;-59
2023/09/08 17:04:04;;;;;;;7.70;5.00;;;;;;;;;;4994648;28;20504;-60
2023/09/08 17:06:58;;;;;;;6.97;4.75;;;;;;;;;;5001230;28;20729;-60
2023/09/08 17:09:45;;;;;;;7.28;4.93;;;;;;;;;;5003221;28;20072;-60
2023/09/08 17:12:39;;;;;;;6.28;5.22;;;;;;;;;;5005698;28;20518;-60
2023/09/08 17:15:26;;;;;;;8.02;4.90;;;;;;;;;;5004329;28;20042;-64
2023/09/08 17:18:20;;;;;;;8.43;5.50;;;;;;;;;;5006544;28;20056;-60
2023/09/08 17:21:07;;;;;;;7.40;5.40;;;;;;;;;;5004136;28;20469;-61
2023/09/08 17:23:41;;;;;;;9.82;5.65;;;;;;;;;;5005352;28;20513;-61
2023/09/08 17:26:09;;;;;;;7.43;5.45;;;;;;;;;;5001187;28;20410;-61
2023/09/08 17:28:36;;;;;;;10.88;5.47;;;;;;;;;;5003903;28;20046;-61
2023/09/08 17:31:30;;;;;;;7.70;5.80;;;;;;;;;;5004246;28;20066;-61
2023/09/08 17:34:19;;;;;;;9.95;5.97;;;;;;;;;;5005838;28;20508;-60
2023/09/08 17:37:15;;;;;;;8.48;6.28;;;;;;;;;;5004319;28;20053;-60
2023/09/08 17:40:05;;;;;;;9.13;6.20;;;;;;;;;;5002570;28;20103;-61
2023/09/08 17:42:39;;;;;;;9.13;6.05;;;;;;;;;;5002967;28;20100;-61
2023/09/08 17:45:32;;;;;;;6.90;6.18;;;;;;;;;;5002125;28;20053;-60
2023/09/08 17:48:37;;;;;;;8.75;5.95;;;;;;;;;;5003254;28;20050;-60
2023/09/08 17:51:24;;;;;;;9.35;6.45;;;;;;;;;;5002798;28;20065;-61
2023/09/08 17:54:18;;;;;;;9.18;5.93;;;;;;;;;;5004824;28;20145;-61
2023/09/08 17:57:05;;;;;;;10.20;6.47;;;;;;;;;;5011205;28;20045;-61
2023/09/08 17:59:59;;;;;;;12.43;7.05;;;;;;;;;;5000445;28;20046;-60
2023/09/08 18:02:46;;;;;;;9.32;6.60;;;;;;;;;;5002443;28;20046;-60
2023/09/08 18:05:43;;;;;;;8.55;6.80;;;;;;;;;;5008554;28;20057;-60
2023/09/08 18:08:30;;;;;;;10.10;7.25;;;;;;;;;;5006496;28;20061;-60
2023/09/08 18:11:24;;;;;;;11.60;7.20;;;;;;;;;;5004983;28;20426;-60
2023/09/08 18:13:51;;;;;;;;;;;;;;;;;;5006929;28;20050;-60
2023/09/08 18:16:45;;;;;;;7.97;7.13;;;;;;;;;;5005862;28;19941;-49
2023/09/08 18:19:35;;;;;;;14.80;7.82;;;;;;;;;;5005414;28;20141;-50
2023/09/08 18:22:26;;;;;;;13.45;8.10;;;;;;;;;;5004437;28;20065;-50
2023/09/08 18:25:20;;;;;;;12.93;8.02;;;;;;;;;;5005175;28;20049;-49
2023/09/08 18:28:18;;;;;;;11.95;8.13;;;;;;;;;;5004213;28;20050;-51
2023/09/08 18:31:05;;;;;;;13.20;8.23;;;;;;;;;;5001582;28;20535;-60
2023/09/08 18:34:00;;;;;;;11.68;7.82;;;;;;;;;;5003112;28;20098;-60
2023/09/08 18:36:53;;;;;;;10.18;8.23;;;;;;;;;;5004185;28;20049;-60
2023/09/08 18:39:40;;;;;;;14.98;8.50;;;;;;;;;;5003366;28;20472;-61
2023/09/08 18:42:38;;;;;;;14.68;8.23;;;;;;;;;;5007844;28;20140;-61
2023/09/08 18:45:31;;;;;;;11.80;8.35;;;;;;;;;;5003385;28;20062;-60
2023/09/08 18:48:33;;;;;;;14.18;7.88;;;;;;;;;;4999425;28;20054;-66
2023/09/08 18:51:20;;;;;;;15.07;8.38;;;;;;;;;;5004832;28;20054;-61
2023/09/08 18:54:14;;;;;;;17.73;9.20;;;;;;;;;;4998773;28;20489;-61
2023/09/08 18:57:02;;;;;;;13.02;8.30;;;;;;;;;;5002330;28;20057;-60
2023/09/08 18:59:55;;;;;;;15.27;8.80;;;;;;;;;;5000790;28;20097;-60
2023/09/08 19:02:42;;;;;;;13.25;8.68;;;;;;;;;;4999843;28;20058;-50
2023/09/08 19:05:36;;;;;;;11.07;9.05;;;;;;;;;;5007353;28;20057;-50
2023/09/08 19:08:23;;;;;;;14.02;10.10;;;;;;;;;;5003568;28;20053;-48